createdAt,value
2024-02-13T00:00:58.168Z,76.99
2024-02-13T00:03:25.742Z,76.90
2024-02-13T00:05:53.065Z,76.66
2024-02-13T00:08:20.020Z,76.65
2024-02-13T00:10:47.256Z,76.98
2024-02-13T00:13:13.829Z,77.03
2024-02-13T00:15:40.658Z,77.27
2024-02-13T00:18:09.304Z,77.02
2024-02-13T00:20:36.127Z,77.25
2024-02-13T00:23:04.248Z,77.21
2024-02-13T00:25:30.793Z,77.13
2024-02-13T00:27:57.352Z,77.03
2024-02-13T00:30:24.799Z,77.07
2024-02-13T00:32:51.523Z,77.21
2024-02-13T00:35:18.227Z,77.29
2024-02-13T00:37:45.553Z,77.29
2024-02-13T00:40:12.066Z,77.24
2024-02-13T00:42:38.998Z,77.24
2024-02-13T00:45:08.306Z,77.26
2024-02-13T00:47:35.546Z,77.54
2024-02-13T00:50:03.828Z,77.23
2024-02-13T00:52:30.330Z,77.37
2024-02-13T00:54:57.387Z,77.32
2024-02-13T00:57:25.267Z,77.23
2024-02-13T00:59:52.422Z,77.00
2024-02-13T01:02:19.118Z,77.06
2024-02-13T01:04:45.703Z,77.00
2024-02-13T01:07:12.333Z,77.19
2024-02-13T01:09:38.844Z,76.89
2024-02-13T01:12:05.459Z,76.96
2024-02-13T01:14:32.366Z,77.09
2024-02-13T01:16:58.906Z,77.48
2024-02-13T01:19:25.376Z,76.98
2024-02-13T01:21:51.999Z,76.97
2024-02-13T01:24:18.504Z,77.29
2024-02-13T01:26:45.848Z,77.04
2024-02-13T01:29:15.912Z,77.39
2024-02-13T01:31:43.240Z,77.23
2024-02-13T01:34:09.885Z,77.40
2024-02-13T01:36:38.874Z,77.50
2024-02-13T01:39:06.296Z,77.20
2024-02-13T01:41:33.254Z,77.50
2024-02-13T01:44:00.914Z,77.56
2024-02-13T01:46:29.586Z,77.55
2024-02-13T01:49:00.011Z,77.25
2024-02-13T01:51:29.085Z,77.48
2024-02-13T01:53:59.810Z,77.52
2024-02-13T01:56:28.908Z,77.71
2024-02-13T01:58:56.782Z,77.76
2024-02-13T02:01:25.968Z,77.53
2024-02-13T02:03:54.694Z,77.51
2024-02-13T02:06:21.941Z,77.56
2024-02-13T02:08:48.851Z,77.60
2024-02-13T02:11:15.560Z,77.48
2024-02-13T02:13:43.667Z,77.57
2024-02-13T02:16:10.282Z,77.19
2024-02-13T02:18:37.415Z,77.50
2024-02-13T02:21:04.286Z,77.27
2024-02-13T02:23:31.060Z,77.24
2024-02-13T02:25:57.886Z,77.34
2024-02-13T02:28:25.425Z,77.25
2024-02-13T02:30:52.173Z,77.23
2024-02-13T02:33:19.020Z,77.11
2024-02-13T02:35:45.653Z,77.12
2024-02-13T02:38:12.399Z,77.01
2024-02-13T02:40:39.047Z,77.11
2024-02-13T02:43:05.600Z,76.82
2024-02-13T02:45:32.225Z,77.23
2024-02-13T02:47:58.906Z,76.94
2024-02-13T02:50:25.681Z,77.32
2024-02-13T02:52:52.802Z,77.07
2024-02-13T02:55:19.851Z,77.16
2024-02-13T02:57:46.714Z,77.06
2024-02-13T03:00:15.690Z,77.03
2024-02-13T03:02:42.958Z,77.15
2024-02-13T03:05:10.300Z,77.15
2024-02-13T03:07:37.306Z,77.28
2024-02-13T03:10:11.201Z,77.40
2024-02-13T03:12:38.494Z,77.16
2024-02-13T03:15:05.422Z,77.08
2024-02-13T03:17:32.886Z,77.22
2024-02-13T03:19:59.555Z,77.24
2024-02-13T03:22:29.297Z,77.49
2024-02-13T03:24:55.909Z,77.47
2024-02-13T03:27:22.454Z,77.58
2024-02-13T03:29:49.111Z,77.61
2024-02-13T03:32:15.763Z,77.59
2024-02-13T03:34:42.944Z,77.59
2024-02-13T03:37:09.854Z,77.67
2024-02-13T03:39:37.212Z,77.48
2024-02-13T03:42:04.020Z,77.59
2024-02-13T03:44:30.544Z,77.52
2024-02-13T03:46:57.049Z,77.54
2024-02-13T03:49:24.241Z,77.41
2024-02-13T03:51:50.825Z,77.53
2024-02-13T03:54:17.367Z,77.64
2024-02-13T03:56:44.556Z,77.47
2024-02-13T03:59:14.044Z,77.63
2024-02-13T04:01:41.016Z,77.48
2024-02-13T04:04:07.586Z,77.70
2024-02-13T04:06:34.563Z,77.64
2024-02-13T04:09:03.948Z,77.50
2024-02-13T04:11:31.658Z,77.68
2024-02-13T04:13:58.428Z,77.59
2024-02-13T04:16:25.263Z,77.50
2024-02-13T04:18:54.403Z,77.49
2024-02-13T04:21:21.925Z,77.71
2024-02-13T04:23:50.228Z,77.70
2024-02-13T04:26:25.984Z,77.70
2024-02-13T04:29:02.791Z,77.85
2024-02-13T04:31:29.293Z,77.81
2024-02-13T04:33:55.999Z,77.83
2024-02-13T04:36:22.691Z,77.89
2024-02-13T04:38:49.456Z,77.67
2024-02-13T04:41:19.359Z,77.77
2024-02-13T04:43:46.006Z,78.06
2024-02-13T04:46:12.538Z,77.89
2024-02-13T04:48:40.451Z,77.79
2024-02-13T04:51:07.111Z,77.78
2024-02-13T04:53:33.911Z,77.88
2024-02-13T04:56:00.580Z,77.92
2024-02-13T04:58:31.574Z,77.99
2024-02-13T05:01:06.615Z,77.90
2024-02-13T05:03:42.857Z,77.73
2024-02-13T05:06:28.512Z,77.87
2024-02-13T05:08:57.142Z,77.64
2024-02-13T05:11:24.844Z,77.76
2024-02-13T05:13:52.028Z,77.78
2024-02-13T05:16:19.634Z,77.55
2024-02-13T05:18:49.297Z,77.67
2024-02-13T05:21:19.820Z,77.61
2024-02-13T05:23:48.746Z,77.48
2024-02-13T05:26:15.578Z,77.44
2024-02-13T05:28:43.694Z,77.42
2024-02-13T05:31:10.423Z,77.39
2024-02-13T05:33:37.535Z,77.45
2024-02-13T05:36:05.306Z,77.15
2024-02-13T05:38:38.979Z,77.00
2024-02-13T05:41:08.522Z,77.33
2024-02-13T05:43:34.990Z,77.24
2024-02-13T05:46:01.546Z,76.92
2024-02-13T05:48:28.178Z,77.11
2024-02-13T05:50:55.765Z,76.88
2024-02-13T05:53:23.163Z,76.85
2024-02-13T05:55:50.003Z,76.96
2024-02-13T05:58:16.471Z,76.96
2024-02-13T06:00:43.272Z,77.08
2024-02-13T06:03:10.072Z,76.84
2024-02-13T06:05:36.804Z,77.08
2024-02-13T06:08:04.833Z,76.80
2024-02-13T06:10:34.911Z,77.14
2024-02-13T06:13:01.458Z,76.78
2024-02-13T06:15:27.976Z,77.15
2024-02-13T06:17:55.534Z,76.79
2024-02-13T06:20:22.365Z,77.16
2024-02-13T06:22:48.992Z,76.94
2024-02-13T06:25:16.175Z,76.93
2024-02-13T06:27:42.688Z,77.04
2024-02-13T06:30:09.737Z,76.85
2024-02-13T06:32:36.361Z,76.65
2024-02-13T06:35:03.071Z,77.10
2024-02-13T06:37:29.565Z,76.73
2024-02-13T06:39:56.578Z,76.99
2024-02-13T06:42:23.096Z,76.82
2024-02-13T06:44:49.764Z,76.92
2024-02-13T06:47:16.285Z,77.00
2024-02-13T06:49:42.912Z,77.15
2024-02-13T06:52:10.914Z,77.01
2024-02-13T06:54:37.513Z,77.28
2024-02-13T06:57:04.972Z,77.23
2024-02-13T06:59:31.640Z,77.17
2024-02-13T07:01:58.276Z,77.08
2024-02-13T07:04:24.858Z,76.93
2024-02-13T07:07:08.540Z,77.28
2024-02-13T07:09:46.940Z,77.34
2024-02-13T07:12:13.511Z,77.75
2024-02-13T07:14:40.206Z,77.20
2024-02-13T07:17:06.746Z,77.43
2024-02-13T07:19:33.373Z,77.36
2024-02-13T07:21:59.892Z,77.10
2024-02-13T07:24:26.469Z,76.96
2024-02-13T07:26:53.106Z,77.54
2024-02-13T07:29:20.197Z,77.63
2024-02-13T07:31:47.690Z,77.50
2024-02-13T07:34:14.289Z,77.42
2024-02-13T07:36:41.034Z,77.48
2024-02-13T07:39:08.446Z,77.39
2024-02-13T07:41:36.702Z,77.57
2024-02-13T07:44:03.402Z,77.65
2024-02-13T07:46:30.397Z,77.66
2024-02-13T07:48:57.039Z,77.68
2024-02-13T07:51:24.053Z,77.63
2024-02-13T07:53:50.899Z,77.46
2024-02-13T07:56:20.220Z,77.73
2024-02-13T07:58:46.807Z,77.57
2024-02-13T08:01:13.958Z,77.72
2024-02-13T08:03:40.573Z,77.58
2024-02-13T08:06:07.572Z,77.60
2024-02-13T08:08:34.731Z,77.74
2024-02-13T08:11:01.311Z,77.50
2024-02-13T08:13:27.776Z,77.78
2024-02-13T08:15:54.273Z,77.54
2024-02-13T08:18:20.897Z,77.78
2024-02-13T08:20:47.692Z,77.86
2024-02-13T08:23:14.667Z,77.68
2024-02-13T08:25:41.598Z,77.80
2024-02-13T08:28:11.242Z,78.34
2024-02-13T08:30:38.010Z,78.14
2024-02-13T08:33:05.621Z,78.09
2024-02-13T08:35:32.514Z,78.18
2024-02-13T08:37:59.694Z,78.50
2024-02-13T08:40:26.230Z,78.19
2024-02-13T08:42:54.032Z,78.15
2024-02-13T08:45:21.955Z,78.25
2024-02-13T08:47:50.795Z,78.47
2024-02-13T08:50:18.428Z,78.72
2024-02-13T08:52:45.468Z,78.83
2024-02-13T08:55:11.946Z,78.79
2024-02-13T08:57:39.016Z,78.77
2024-02-13T09:00:11.421Z,78.94
2024-02-13T09:02:38.348Z,78.72
2024-02-13T09:05:05.738Z,79.01
2024-02-13T09:07:32.595Z,78.77
2024-02-13T09:09:59.709Z,79.22
2024-02-13T09:12:26.386Z,79.25
2024-02-13T09:14:53.019Z,79.13
2024-02-13T09:17:19.733Z,78.97
2024-02-13T09:19:46.524Z,79.29
2024-02-13T09:22:14.887Z,79.21
2024-02-13T09:24:45.387Z,78.90
2024-02-13T09:27:12.702Z,78.91
2024-02-13T09:29:39.777Z,79.05
2024-02-13T09:32:06.476Z,78.72
2024-02-13T09:34:33.214Z,78.68
2024-02-13T09:37:00.225Z,78.80
2024-02-13T09:39:26.766Z,78.56
2024-02-13T09:41:55.180Z,78.75
2024-02-13T09:44:21.855Z,78.49
2024-02-13T09:46:50.811Z,78.64
2024-02-13T09:49:18.304Z,78.53
2024-02-13T09:51:49.249Z,78.46
2024-02-13T09:54:16.612Z,78.26
2024-02-13T09:56:43.838Z,78.52
2024-02-13T09:59:13.128Z,78.14
2024-02-13T10:01:39.895Z,78.42
2024-02-13T10:04:07.969Z,78.49
2024-02-13T10:06:34.871Z,78.28
2024-02-13T10:09:02.165Z,78.33
2024-02-13T10:11:37.503Z,78.31
2024-02-13T10:14:04.306Z,78.51
2024-02-13T10:16:32.040Z,78.45
2024-02-13T10:19:01.642Z,78.27
2024-02-13T10:21:30.488Z,78.11
2024-02-13T10:24:14.821Z,78.14
2024-02-13T10:26:41.440Z,78.39
2024-02-13T10:29:09.009Z,78.28
2024-02-13T10:31:36.670Z,78.40
2024-02-13T10:34:08.349Z,78.36
2024-02-13T10:36:39.783Z,78.49
2024-02-13T10:39:09.338Z,78.58
2024-02-13T10:41:44.759Z,78.55
2024-02-13T10:44:12.120Z,78.47
2024-02-13T10:46:43.098Z,78.57
2024-02-13T10:49:34.276Z,78.38
2024-02-13T10:52:00.928Z,78.54
2024-02-13T10:54:28.090Z,78.23
2024-02-13T10:56:56.194Z,78.54
2024-02-13T10:59:23.795Z,78.37
2024-02-13T11:01:52.903Z,78.32
2024-02-13T11:04:20.948Z,78.48
2024-02-13T11:06:47.610Z,78.42
2024-02-13T11:09:14.496Z,78.35
2024-02-13T11:11:46.110Z,78.22
2024-02-13T11:14:23.227Z,78.15
2024-02-13T11:17:10.777Z,78.20
2024-02-13T11:19:45.650Z,78.30
2024-02-13T11:22:17.428Z,78.35
2024-02-13T11:24:53.107Z,78.26
2024-02-13T11:27:29.872Z,78.21
2024-02-13T11:30:00.175Z,78.34
2024-02-13T11:32:30.658Z,78.45
2024-02-13T11:35:02.623Z,78.19
2024-02-13T11:37:29.700Z,78.19
2024-02-13T11:39:58.714Z,78.21
2024-02-13T11:42:33.643Z,77.95
2024-02-13T11:45:01.559Z,78.13
2024-02-13T11:47:28.455Z,77.97
2024-02-13T11:49:56.428Z,77.90
2024-02-13T11:52:24.596Z,78.04
2024-02-13T11:54:52.228Z,77.85
2024-02-13T11:57:20.993Z,77.79
2024-02-13T12:00:02.572Z,77.74
2024-02-13T12:02:31.078Z,77.87
2024-02-13T12:04:57.574Z,77.80
2024-02-13T12:07:24.168Z,77.84
2024-02-13T12:09:52.387Z,77.86
2024-02-13T12:12:19.899Z,77.86
2024-02-13T12:14:46.907Z,77.96
2024-02-13T12:17:13.810Z,77.89
2024-02-13T12:19:41.872Z,77.74
2024-02-13T12:22:14.560Z,77.73
2024-02-13T12:24:41.778Z,77.77
2024-02-13T12:27:11.719Z,77.92
2024-02-13T12:29:43.630Z,77.96
2024-02-13T12:32:17.248Z,77.86
2024-02-13T12:34:45.024Z,77.80
2024-02-13T12:37:21.471Z,77.85
2024-02-13T12:39:48.775Z,77.98
2024-02-13T12:42:18.289Z,77.81
2024-02-13T12:44:45.457Z,78.00
2024-02-13T12:47:14.972Z,77.87
2024-02-13T12:49:46.670Z,77.77
2024-02-13T12:52:18.052Z,77.85
2024-02-13T12:54:47.400Z,77.66
2024-02-13T12:57:14.129Z,77.64
2024-02-13T12:59:40.632Z,77.73
2024-02-13T13:02:10.295Z,77.68
2024-02-13T13:04:37.040Z,77.72
2024-02-13T13:07:06.798Z,77.61
2024-02-13T13:09:33.428Z,77.60
2024-02-13T13:12:00.167Z,77.53
2024-02-13T13:14:28.791Z,77.62
2024-02-13T13:16:56.600Z,77.61
2024-02-13T13:19:28.789Z,77.30
2024-02-13T13:21:56.460Z,77.31
2024-02-13T13:24:24.019Z,77.53
2024-02-13T13:26:51.573Z,77.52
2024-02-13T13:29:18.784Z,77.58
2024-02-13T13:31:48.589Z,77.49
2024-02-13T13:34:21.307Z,77.39
2024-02-13T13:36:48.714Z,77.37
2024-02-13T13:39:15.293Z,77.36
2024-02-13T13:41:42.569Z,77.49
2024-02-13T13:44:10.986Z,77.30
2024-02-13T13:46:37.603Z,77.35
2024-02-13T13:49:05.461Z,77.38
2024-02-13T13:51:34.713Z,77.38
2024-02-13T13:54:01.803Z,77.36
2024-02-13T13:56:28.371Z,77.28
2024-02-13T13:58:54.824Z,77.51
2024-02-13T14:01:21.462Z,77.30
2024-02-13T14:03:48.125Z,77.28
2024-02-13T14:06:14.898Z,77.33
2024-02-13T14:08:42.007Z,77.41
2024-02-13T14:11:08.689Z,77.16
2024-02-13T14:13:35.793Z,77.31
2024-02-13T14:16:02.430Z,77.29
2024-02-13T14:18:29.760Z,77.30
2024-02-13T14:20:56.946Z,77.24
2024-02-13T14:23:24.535Z,77.33
2024-02-13T14:25:51.687Z,77.33
2024-02-13T14:28:19.055Z,77.15
2024-02-13T14:30:47.216Z,77.30
2024-02-13T14:33:14.557Z,77.36
2024-02-13T14:35:43.422Z,77.41
2024-02-13T14:38:10.143Z,77.33
2024-02-13T14:40:40.857Z,77.49
2024-02-13T14:43:08.840Z,77.36
2024-02-13T14:45:36.737Z,77.20
2024-02-13T14:48:10.356Z,77.24
2024-02-13T14:50:39.033Z,76.96
2024-02-13T14:53:10.003Z,77.11
2024-02-13T14:55:39.681Z,77.12
2024-02-13T14:58:14.706Z,77.18
2024-02-13T15:00:54.151Z,77.00
2024-02-13T15:03:22.516Z,77.08
2024-02-13T15:05:49.280Z,77.17
2024-02-13T15:08:17.175Z,76.90
2024-02-13T15:10:45.334Z,76.88
2024-02-13T15:13:13.921Z,76.71
2024-02-13T15:15:40.468Z,76.97
2024-02-13T15:18:07.638Z,76.70
2024-02-13T15:20:36.429Z,76.79
2024-02-13T15:23:02.978Z,76.81
2024-02-13T15:25:30.018Z,76.83
2024-02-13T15:27:56.535Z,76.71
2024-02-13T15:30:23.870Z,76.83
2024-02-13T15:32:50.682Z,76.76
2024-02-13T15:35:20.226Z,76.55
2024-02-13T15:38:05.817Z,76.63
2024-02-13T15:40:51.003Z,76.45
2024-02-13T15:43:36.268Z,76.61
2024-02-13T15:46:21.112Z,76.55
2024-02-13T15:48:48.599Z,76.50
2024-02-13T15:51:15.959Z,76.56
2024-02-13T15:53:43.104Z,76.42
2024-02-13T15:56:10.996Z,76.19
2024-02-13T15:58:39.989Z,76.36
2024-02-13T16:01:07.258Z,76.15
2024-02-13T16:03:37.278Z,76.16
2024-02-13T16:06:04.236Z,76.27
2024-02-13T16:08:31.416Z,76.18
2024-02-13T16:10:58.639Z,76.34
2024-02-13T16:13:27.651Z,76.14
2024-02-13T16:15:56.162Z,76.06
2024-02-13T16:18:23.938Z,76.19
2024-02-13T16:20:50.590Z,75.90
2024-02-13T16:23:17.277Z,75.92
2024-02-13T16:25:44.018Z,75.74
2024-02-13T16:28:10.892Z,75.89
2024-02-13T16:30:37.474Z,75.89
2024-02-13T16:33:05.475Z,75.68
2024-02-13T16:35:32.494Z,75.60
2024-02-13T16:37:59.025Z,75.66
2024-02-13T16:40:27.612Z,75.53
2024-02-13T16:42:56.859Z,75.77
2024-02-13T16:45:25.461Z,75.57
2024-02-13T16:47:53.476Z,75.75
2024-02-13T16:50:20.589Z,75.63
2024-02-13T16:52:47.420Z,75.65
2024-02-13T16:55:15.060Z,75.79
2024-02-13T16:57:42.545Z,75.72
2024-02-13T17:00:11.777Z,75.91
2024-02-13T17:02:41.976Z,75.87
2024-02-13T17:05:12.140Z,75.92
2024-02-13T17:07:42.554Z,75.67
2024-02-13T17:10:10.021Z,75.76
2024-02-13T17:12:37.615Z,75.92
2024-02-13T17:15:08.500Z,75.86
2024-02-13T17:17:36.234Z,75.72
2024-02-13T17:20:05.066Z,75.39
2024-02-13T17:22:31.809Z,75.26
2024-02-13T17:24:58.342Z,75.37
2024-02-13T17:27:25.483Z,75.32
2024-02-13T17:29:52.965Z,75.59
2024-02-13T17:32:19.927Z,75.46
2024-02-13T17:34:46.460Z,75.39
2024-02-13T17:37:13.100Z,75.58
2024-02-13T17:39:39.619Z,75.53
2024-02-13T17:42:06.701Z,75.41
2024-02-13T17:44:33.353Z,75.22
2024-02-13T17:47:00.028Z,75.33
2024-02-13T17:49:26.750Z,75.34
2024-02-13T17:51:53.460Z,75.31
2024-02-13T17:54:19.974Z,75.41
2024-02-13T17:56:46.984Z,75.34
2024-02-13T17:59:13.543Z,75.33
2024-02-13T18:01:47.840Z,75.33
2024-02-13T18:04:14.417Z,75.39
2024-02-13T18:06:41.107Z,75.38
2024-02-13T18:09:07.989Z,75.52
2024-02-13T18:11:34.638Z,75.39
2024-02-13T18:14:01.893Z,75.42
2024-02-13T18:16:28.664Z,75.44
2024-02-13T18:18:57.295Z,75.52
2024-02-13T18:21:24.065Z,75.40
2024-02-13T18:23:55.217Z,75.36
2024-02-13T18:26:23.688Z,75.56
2024-02-13T18:28:50.246Z,75.56
2024-02-13T18:31:16.703Z,75.47
2024-02-13T18:33:43.558Z,75.56
2024-02-13T18:36:10.222Z,75.45
2024-02-13T18:38:36.996Z,75.52
2024-02-13T18:41:03.826Z,75.56
2024-02-13T18:43:30.478Z,75.65
2024-02-13T18:45:56.954Z,75.64
2024-02-13T18:48:26.483Z,75.46
2024-02-13T18:50:53.238Z,75.51
2024-02-13T18:53:28.059Z,75.62
2024-02-13T18:55:55.240Z,75.81
2024-02-13T18:58:22.038Z,75.43
2024-02-13T19:00:49.918Z,75.44
2024-02-13T19:03:20.681Z,75.62
2024-02-13T19:05:49.344Z,75.54
2024-02-13T19:08:15.955Z,75.43
2024-02-13T19:10:43.356Z,75.36
2024-02-13T19:13:09.860Z,75.55
2024-02-13T19:15:36.578Z,75.60
2024-02-13T19:18:03.659Z,75.66
2024-02-13T19:20:30.436Z,75.48
2024-02-13T19:22:56.998Z,75.38
2024-02-13T19:25:23.589Z,75.39
2024-02-13T19:27:50.903Z,75.48
2024-02-13T19:30:17.567Z,75.51
2024-02-13T19:32:44.149Z,75.61
2024-02-13T19:35:11.065Z,75.36
2024-02-13T19:37:38.068Z,75.44
2024-02-13T19:40:08.492Z,75.16
2024-02-13T19:42:36.386Z,75.42
2024-02-13T19:45:05.442Z,75.43
2024-02-13T19:47:32.570Z,75.50
2024-02-13T19:49:59.971Z,75.53
2024-02-13T19:52:30.734Z,75.24
2024-02-13T19:54:57.238Z,75.49
2024-02-13T19:57:23.707Z,75.32
2024-02-13T19:59:53.234Z,75.34
2024-02-13T20:02:21.126Z,75.43
2024-02-13T20:04:48.912Z,75.41
2024-02-13T20:07:16.273Z,75.34
2024-02-13T20:09:45.957Z,75.44
2024-02-13T20:12:12.664Z,75.57
2024-02-13T20:14:39.228Z,75.67
2024-02-13T20:17:06.092Z,75.43
2024-02-13T20:19:35.541Z,75.57
2024-02-13T20:22:02.352Z,75.51
2024-02-13T20:24:31.781Z,75.54
2024-02-13T20:26:59.824Z,75.64
2024-02-13T20:29:27.367Z,75.70
2024-02-13T20:31:53.902Z,75.66
2024-02-13T20:34:20.639Z,75.54
2024-02-13T20:36:53.387Z,75.36
2024-02-13T20:39:19.914Z,75.44
2024-02-13T20:41:46.444Z,75.57
2024-02-13T20:44:13.591Z,75.46
2024-02-13T20:46:42.120Z,75.43
2024-02-13T20:49:09.580Z,75.49
2024-02-13T20:51:36.684Z,75.66
2024-02-13T20:54:04.342Z,75.64
2024-02-13T20:56:30.940Z,75.58
2024-02-13T20:58:58.360Z,75.71
2024-02-13T21:01:28.240Z,75.80
2024-02-13T21:03:55.337Z,75.76
2024-02-13T21:06:25.086Z,75.94
2024-02-13T21:08:52.442Z,75.96
2024-02-13T21:11:19.541Z,75.89
2024-02-13T21:13:46.771Z,75.86
2024-02-13T21:16:15.456Z,76.00
2024-02-13T21:18:42.835Z,75.84
2024-02-13T21:21:28.060Z,75.98
2024-02-13T21:23:54.885Z,75.96
2024-02-13T21:26:21.543Z,75.88
2024-02-13T21:28:50.745Z,75.95
2024-02-13T21:31:17.544Z,76.01
2024-02-13T21:33:44.530Z,75.93
2024-02-13T21:36:11.323Z,75.86
2024-02-13T21:38:39.247Z,75.68
2024-02-13T21:41:06.199Z,75.70
2024-02-13T21:43:32.741Z,75.80
2024-02-13T21:45:59.422Z,75.69
2024-02-13T21:48:26.133Z,75.86
2024-02-13T21:50:52.745Z,75.87
2024-02-13T21:53:19.495Z,75.70
2024-02-13T21:55:46.019Z,75.63
2024-02-13T21:58:12.852Z,75.79
2024-02-13T22:00:39.361Z,75.66
2024-02-13T22:03:06.794Z,75.77
2024-02-13T22:05:34.145Z,75.61
2024-02-13T22:08:00.669Z,75.86
2024-02-13T22:10:27.161Z,75.68
2024-02-13T22:12:54.250Z,75.58
2024-02-13T22:15:22.107Z,75.58
2024-02-13T22:17:49.179Z,75.59
2024-02-13T22:20:16.796Z,75.63
2024-02-13T22:22:43.610Z,75.59
2024-02-13T22:25:11.398Z,75.74
2024-02-13T22:27:37.970Z,75.67
2024-02-13T22:30:04.964Z,75.48
2024-02-13T22:32:32.906Z,75.69
2024-02-13T22:34:59.888Z,75.58
2024-02-13T22:37:26.570Z,75.38
2024-02-13T22:39:53.212Z,75.38
2024-02-13T22:42:19.899Z,75.25
2024-02-13T22:44:46.576Z,75.21
2024-02-13T22:47:13.086Z,75.26
2024-02-13T22:49:39.774Z,75.39
2024-02-13T22:52:06.488Z,75.27
2024-02-13T22:54:32.947Z,75.14
2024-02-13T22:56:59.568Z,75.30
2024-02-13T22:59:26.082Z,75.29
2024-02-13T23:01:52.591Z,75.15
2024-02-13T23:04:19.820Z,75.00
2024-02-13T23:06:46.412Z,75.14
2024-02-13T23:09:18.049Z,75.14
2024-02-13T23:11:45.700Z,74.88
2024-02-13T23:14:15.101Z,74.94
2024-02-13T23:16:42.610Z,75.05
2024-02-13T23:19:11.344Z,74.91
2024-02-13T23:21:38.084Z,74.96
2024-02-13T23:24:09.038Z,74.96
2024-02-13T23:26:36.007Z,74.99
2024-02-13T23:29:02.564Z,75.12
2024-02-13T23:31:29.503Z,75.21
2024-02-13T23:33:56.320Z,75.04
2024-02-13T23:36:23.971Z,75.12
2024-02-13T23:38:50.829Z,75.12
2024-02-13T23:41:17.486Z,74.88
2024-02-13T23:43:44.736Z,75.25
2024-02-13T23:46:11.265Z,74.97
2024-02-13T23:48:38.596Z,75.24
2024-02-13T23:51:06.388Z,75.04
2024-02-13T23:53:33.125Z,75.00
2024-02-13T23:56:00.506Z,75.13
2024-02-13T23:58:28.130Z,74.93
